createdAt,value
2019-04-16T00:00:57.374Z,12.8
2019-04-16T00:01:57.447Z,12.6
2019-04-16T00:02:57.489Z,12.6
2019-04-16T00:03:57.535Z,12.4
2019-04-16T00:04:57.873Z,13.2
2019-04-16T00:05:58.879Z,13.1
2019-04-16T00:06:58.718Z,14.2
2019-04-16T00:07:57.799Z,13.9
2019-04-16T00:08:58.336Z,15.3
2019-04-16T00:09:57.932Z,14.1
2019-04-16T00:10:58.006Z,12.7
2019-04-16T00:11:58.062Z,12.2
2019-04-16T00:12:58.151Z,13.2
2019-04-16T00:14:02.944Z,13.7
2019-04-16T00:14:59.318Z,12.5
2019-04-16T00:15:58.564Z,12.3
2019-04-16T00:16:58.470Z,13.5
2019-04-16T00:17:58.546Z,13.3
2019-04-16T00:19:04.125Z,13.1
2019-04-16T00:19:59.630Z,13.1
2019-04-16T00:20:59.744Z,12.9
2019-04-16T00:21:58.850Z,13.2
2019-04-16T00:22:58.904Z,13.2
2019-04-16T00:23:59.955Z,13.1
2019-04-16T00:24:59.019Z,13.1
2019-04-16T00:25:59.142Z,13
2019-04-16T00:26:59.950Z,13.5
2019-04-16T00:27:59.891Z,12.8
2019-04-16T00:29:01.743Z,13.4
2019-04-16T00:30:03.824Z,13.4
2019-04-16T00:31:00.417Z,12.8
2019-04-16T00:32:00.490Z,13
2019-04-16T00:32:59.546Z,13.2
2019-04-16T00:33:59.770Z,12.4
2019-04-16T00:34:59.656Z,12.9
2019-04-16T00:35:59.740Z,12.7
2019-04-16T00:36:59.862Z,12.8
2019-04-16T00:37:59.914Z,13
2019-04-16T00:39:01.135Z,13.4
2019-04-16T00:40:00.003Z,13.2
2019-04-16T00:41:01.069Z,12.3
2019-04-16T00:42:00.170Z,12.7
2019-04-16T00:43:00.252Z,13.4
2019-04-16T00:44:00.314Z,13.2
2019-04-16T00:45:00.369Z,14.4
2019-04-16T00:46:00.490Z,14
2019-04-16T00:47:00.704Z,15.1
2019-04-16T00:48:00.646Z,13.1
2019-04-16T00:49:00.710Z,13.4
2019-04-16T00:50:00.756Z,12.4
2019-04-16T00:51:00.824Z,12.7
2019-04-16T00:52:05.343Z,12.4
2019-04-16T00:53:02.025Z,12.9
2019-04-16T00:54:02.066Z,12.2
2019-04-16T00:55:01.101Z,12.8
2019-04-16T00:56:01.164Z,12.6
2019-04-16T00:57:01.251Z,13
2019-04-16T00:58:01.339Z,13.4
2019-04-16T00:59:01.394Z,12.4
2019-04-16T01:00:01.427Z,12.4
2019-04-16T01:01:01.493Z,12.5
2019-04-16T01:02:01.592Z,12.4
2019-04-16T01:03:01.671Z,12.9
2019-04-16T01:04:01.747Z,12.7
2019-04-16T01:05:01.805Z,12.8
2019-04-16T01:06:06.409Z,12.6
2019-04-16T01:07:02.974Z,12.9
2019-04-16T01:08:02.049Z,13.2
2019-04-16T01:09:02.096Z,12.2
2019-04-16T01:10:02.152Z,12.8
2019-04-16T01:11:02.210Z,13.2
2019-04-16T01:12:02.364Z,13.2
2019-04-16T01:13:02.439Z,13.2
2019-04-16T01:14:02.493Z,13.2
2019-04-16T01:15:02.549Z,13.1
2019-04-16T01:16:03.860Z,13.2
2019-04-16T01:17:04.819Z,13.1
2019-04-16T01:18:04.511Z,13.3
2019-04-16T01:19:03.823Z,13.3
2019-04-16T01:20:03.884Z,12.8
2019-04-16T01:21:02.941Z,13
2019-04-16T01:22:03.031Z,14
2019-04-16T01:23:03.427Z,15.8
2019-04-16T01:24:03.383Z,14.7
2019-04-16T01:25:03.516Z,13.7
2019-04-16T01:26:03.471Z,13.3
2019-04-16T01:27:03.501Z,13.4
2019-04-16T01:28:03.617Z,13.4
2019-04-16T01:29:04.138Z,13.5
2019-04-16T01:30:05.905Z,13.2
2019-04-16T01:31:07.875Z,13.2
2019-04-16T01:32:09.713Z,12.6
2019-04-16T01:33:04.770Z,13.1
2019-04-16T01:34:03.852Z,12.5
2019-04-16T01:35:03.925Z,12.8
2019-04-16T01:36:03.991Z,12.8
2019-04-16T01:37:04.031Z,12.8
2019-04-16T01:38:04.124Z,13.5
2019-04-16T01:39:15.520Z,13.1
2019-04-16T01:40:05.242Z,12.9
2019-04-16T01:41:04.304Z,12.8
2019-04-16T01:42:04.359Z,13.4
2019-04-16T01:43:04.408Z,12.7
2019-04-16T01:44:04.509Z,13.7
2019-04-16T01:45:04.545Z,13.4
2019-04-16T01:46:04.586Z,13.5
2019-04-16T01:47:05.282Z,14.4
2019-04-16T01:48:07.815Z,14.5
2019-04-16T01:49:09.653Z,13.7
2019-04-16T01:50:05.816Z,13.3
2019-04-16T01:51:05.871Z,13.1
2019-04-16T01:52:04.920Z,13.5
2019-04-16T01:53:04.988Z,13
2019-04-16T01:54:05.174Z,13
2019-04-16T01:55:05.062Z,13.1
2019-04-16T01:56:05.135Z,13.6
2019-04-16T01:57:05.165Z,13.3
2019-04-16T01:58:05.202Z,13.4
2019-04-16T01:59:05.937Z,13.2
2019-04-16T02:00:07.780Z,14.4
2019-04-16T02:01:08.003Z,13.3
2019-04-16T02:02:06.406Z,14.1
2019-04-16T02:03:05.475Z,13.1
2019-04-16T02:04:05.564Z,13.6
2019-04-16T02:05:05.623Z,13.3
2019-04-16T02:06:05.677Z,13.2
2019-04-16T02:07:06.723Z,12.7
2019-04-16T02:08:05.770Z,12.3
2019-04-16T02:09:05.834Z,13.2
2019-04-16T02:10:08.043Z,13
2019-04-16T02:11:09.523Z,12.7
2019-04-16T02:12:06.961Z,12.3
2019-04-16T02:13:07.021Z,12.8
2019-04-16T02:14:06.087Z,12.5
2019-04-16T02:15:06.154Z,11.6
2019-04-16T02:16:06.219Z,12.6
2019-04-16T02:17:06.297Z,12.9
2019-04-16T02:18:06.363Z,12.5
2019-04-16T02:19:06.441Z,13.5
2019-04-16T02:20:07.386Z,12.5
2019-04-16T02:21:09.481Z,13.5
2019-04-16T02:22:07.560Z,13.1
2019-04-16T02:23:07.617Z,12.8
2019-04-16T02:24:06.711Z,13.2
2019-04-16T02:25:06.774Z,13.3
2019-04-16T02:26:06.838Z,14.1
2019-04-16T02:27:06.897Z,13.5
2019-04-16T02:28:06.975Z,13.5
2019-04-16T02:29:07.082Z,13.6
2019-04-16T02:30:07.134Z,13.5
2019-04-16T02:31:12.757Z,13
2019-04-16T02:32:08.235Z,13.2
2019-04-16T02:33:07.300Z,13
2019-04-16T02:34:07.380Z,12.7
2019-04-16T02:35:07.442Z,12.6
2019-04-16T02:36:07.499Z,14.3
2019-04-16T02:37:07.538Z,14.3
2019-04-16T02:38:12.160Z,14.5
2019-04-16T02:39:08.680Z,13.6
2019-04-16T02:40:07.730Z,13.2
2019-04-16T02:41:08.783Z,13.3
2019-04-16T02:42:07.843Z,12.9
2019-04-16T02:43:08.325Z,13.1
2019-04-16T02:44:13.958Z,13.5
2019-04-16T02:45:08.983Z,13.2
2019-04-16T02:46:08.035Z,13.3
2019-04-16T02:47:08.704Z,12.6
2019-04-16T02:48:11.523Z,13.1
2019-04-16T02:49:09.201Z,12.8
2019-04-16T02:50:08.285Z,12.5
2019-04-16T02:51:08.652Z,12.6
2019-04-16T02:52:14.840Z,12.6
2019-04-16T02:53:09.417Z,13.6
2019-04-16T02:54:08.451Z,13.5
2019-04-16T02:55:10.497Z,13.4
2019-04-16T02:56:08.581Z,13.2
2019-04-16T02:57:09.606Z,13.1
2019-04-16T02:58:08.646Z,12.7
2019-04-16T02:59:12.355Z,13.2
2019-04-16T03:00:09.749Z,12.8
2019-04-16T03:01:08.803Z,12.9
2019-04-16T03:02:08.880Z,12.4
2019-04-16T03:03:08.938Z,12.5
2019-04-16T03:04:08.996Z,13.3
2019-04-16T03:05:09.098Z,12.8
2019-04-16T03:06:09.146Z,12.9
2019-04-16T03:07:09.199Z,12.8
2019-04-16T03:08:09.224Z,13
2019-04-16T03:09:09.919Z,13.4
2019-04-16T03:10:11.957Z,13.3
2019-04-16T03:11:10.407Z,12.7
2019-04-16T03:12:10.466Z,13.4
2019-04-16T03:13:09.515Z,12.5
2019-04-16T03:14:09.566Z,12.4
2019-04-16T03:15:09.634Z,13.8
2019-04-16T03:16:09.723Z,12.6
2019-04-16T03:17:11.197Z,12.9
2019-04-16T03:18:11.651Z,12.9
2019-04-16T03:19:10.880Z,12.8
2019-04-16T03:20:10.022Z,12.5
2019-04-16T03:21:10.050Z,12.6
2019-04-16T03:22:10.164Z,12.4
2019-04-16T03:23:10.164Z,12.5
2019-04-16T03:24:10.201Z,13.5
2019-04-16T03:25:13.529Z,13.1
2019-04-16T03:26:16.137Z,12.8
2019-04-16T03:27:11.438Z,13.3
2019-04-16T03:28:10.482Z,13.2
2019-04-16T03:29:10.536Z,13.8
2019-04-16T03:30:10.567Z,12.9
2019-04-16T03:31:19.264Z,12.8
2019-04-16T03:32:14.115Z,13
2019-04-16T03:33:14.182Z,12.4
2019-04-16T03:34:11.713Z,12.7
2019-04-16T03:35:10.769Z,12.5
2019-04-16T03:36:10.848Z,12.2
2019-04-16T03:37:10.893Z,12.7
2019-04-16T03:38:10.930Z,13
2019-04-16T03:39:13.145Z,12.7
2019-04-16T03:40:16.819Z,12.7
2019-04-16T03:41:12.042Z,12.1
2019-04-16T03:42:11.312Z,12.6
2019-04-16T03:43:11.184Z,13.4
2019-04-16T03:44:11.227Z,12.4
2019-04-16T03:45:11.251Z,13.4
2019-04-16T03:46:12.700Z,12.5
2019-04-16T03:47:11.427Z,12.8
2019-04-16T03:48:12.482Z,12.2
2019-04-16T03:49:11.538Z,12.6
2019-04-16T03:50:11.622Z,12.1
2019-04-16T03:51:11.685Z,12.8
2019-04-16T03:52:11.742Z,12.6
2019-04-16T03:53:16.260Z,12.4
2019-04-16T03:54:12.854Z,12.8
2019-04-16T03:55:12.137Z,12.7
2019-04-16T03:56:12.024Z,12.2
2019-04-16T03:57:12.091Z,12.7
2019-04-16T03:58:12.121Z,12.6
2019-04-16T03:59:12.538Z,11.9
2019-04-16T04:00:12.940Z,12.9
2019-04-16T04:01:14.085Z,12.2
2019-04-16T04:02:15.240Z,11.7
2019-04-16T04:03:13.375Z,12.4
2019-04-16T04:04:12.544Z,12.6
2019-04-16T04:05:12.445Z,12.2
2019-04-16T04:06:12.507Z,12.2
2019-04-16T04:07:13.351Z,12.3
2019-04-16T04:08:16.045Z,12.5
2019-04-16T04:09:13.716Z,12.4
2019-04-16T04:10:13.759Z,12.8
2019-04-16T04:11:13.783Z,12.2
2019-04-16T04:12:14.132Z,12.2
2019-04-16T04:13:17.221Z,12.4
2019-04-16T04:14:14.014Z,12.7
2019-04-16T04:15:13.119Z,12.1
2019-04-16T04:16:13.191Z,12.4
2019-04-16T04:17:13.286Z,12
2019-04-16T04:18:13.304Z,11.6
2019-04-16T04:19:15.077Z,12.4
2019-04-16T04:20:14.549Z,12.3
2019-04-16T04:21:14.534Z,12.4
2019-04-16T04:22:14.603Z,11.8
2019-04-16T04:23:13.656Z,12
2019-04-16T04:24:13.731Z,12.3
2019-04-16T04:25:13.788Z,11.8
2019-04-16T04:26:13.842Z,12
2019-04-16T04:27:16.844Z,11.8
2019-04-16T04:28:18.419Z,12.3
2019-04-16T04:29:15.025Z,12
2019-04-16T04:30:14.087Z,12.1
2019-04-16T04:31:14.146Z,11.6
2019-04-16T04:32:14.230Z,12.1
2019-04-16T04:33:14.265Z,11.6
2019-04-16T04:34:16.922Z,11.8
2019-04-16T04:35:19.924Z,11.7
2019-04-16T04:36:18.686Z,12
2019-04-16T04:37:15.550Z,12.1
2019-04-16T04:38:14.661Z,12.2
2019-04-16T04:39:15.753Z,12
2019-04-16T04:40:15.815Z,11.9
2019-04-16T04:41:14.912Z,11.9
2019-04-16T04:42:18.609Z,11.4
2019-04-16T04:43:16.105Z,11.3
2019-04-16T04:44:15.199Z,11.7
2019-04-16T04:45:15.278Z,11.4
2019-04-16T04:46:15.685Z,11.7
2019-04-16T04:47:19.218Z,11.6
2019-04-16T04:48:16.578Z,11.4
2019-04-16T04:49:16.728Z,11.4
2019-04-16T04:50:15.890Z,11.1
2019-04-16T04:51:16.881Z,11.4
2019-04-16T04:52:16.028Z,11.1
2019-04-16T04:53:19.157Z,11.3
2019-04-16T04:54:21.456Z,11.1
2019-04-16T04:55:17.189Z,11.6
2019-04-16T04:56:19.081Z,11.6
2019-04-16T04:57:17.370Z,11.6
2019-04-16T04:58:16.388Z,11.9
2019-04-16T04:59:16.396Z,11.4
2019-04-16T05:00:16.366Z,11.8
2019-04-16T05:01:16.521Z,11.9
2019-04-16T05:02:16.670Z,11.4
2019-04-16T05:03:16.829Z,11.6
2019-04-16T05:04:20.317Z,11.7
2019-04-16T05:05:17.840Z,11.2
2019-04-16T05:06:18.003Z,11.3
2019-04-16T05:07:16.998Z,11.3
2019-04-16T05:08:17.027Z,11.5
2019-04-16T05:09:17.026Z,10.8
2019-04-16T05:10:17.026Z,10.8
2019-04-16T05:11:17.191Z,11.3
2019-04-16T05:12:17.754Z,10.9
2019-04-16T05:13:18.214Z,11.3
2019-04-16T05:14:18.203Z,10.9
2019-04-16T05:15:17.242Z,11.5
2019-04-16T05:16:17.247Z,11.9
2019-04-16T05:17:17.247Z,11.3
2019-04-16T05:18:17.259Z,11.1
2019-04-16T05:19:17.248Z,10.8
2019-04-16T05:20:17.241Z,11.1
2019-04-16T05:21:18.973Z,11.3
2019-04-16T05:22:20.538Z,10.9
2019-04-16T05:23:18.647Z,10.9
2019-04-16T05:24:18.630Z,10.6
2019-04-16T05:25:17.621Z,10.6
2019-04-16T05:26:17.627Z,11.5
2019-04-16T05:27:17.625Z,10.9
2019-04-16T05:28:17.653Z,11.2
2019-04-16T05:29:18.635Z,10.9
2019-04-16T05:30:20.743Z,10.4
2019-04-16T05:31:18.678Z,10.6
2019-04-16T05:32:18.664Z,10.8
2019-04-16T05:33:17.721Z,10.8
2019-04-16T05:34:18.377Z,10.4
2019-04-16T05:35:17.732Z,10.1
2019-04-16T05:36:20.718Z,11.2
2019-04-16T05:37:19.775Z,10.3
2019-04-16T05:38:20.393Z,10.1
2019-04-16T05:39:19.014Z,10.2
2019-04-16T05:40:18.035Z,10.7
2019-04-16T05:41:21.895Z,10.7
2019-04-16T05:42:19.351Z,10.3
2019-04-16T05:43:22.133Z,10.5
2019-04-16T05:44:19.355Z,10.4
2019-04-16T05:45:18.558Z,10.3
2019-04-16T05:46:18.366Z,10.2
2019-04-16T05:47:18.389Z,10
2019-04-16T05:48:21.587Z,10.7
2019-04-16T05:49:24.547Z,10.3
2019-04-16T05:50:19.685Z,10.4
2019-04-16T05:51:18.850Z,10.2
2019-04-16T05:52:18.888Z,10.4
2019-04-16T05:53:18.886Z,10.8
2019-04-16T05:54:18.917Z,9.9
2019-04-16T05:55:19.422Z,10.4
2019-04-16T05:56:20.153Z,10.8
2019-04-16T05:57:19.917Z,10.6
2019-04-16T05:58:19.947Z,10.6
2019-04-16T05:59:19.263Z,10.6
2019-04-16T06:00:19.064Z,10.2
2019-04-16T06:01:19.041Z,10.5
2019-04-16T06:02:19.935Z,10.5
2019-04-16T06:03:21.596Z,10.8
2019-04-16T06:04:24.203Z,10.5
2019-04-16T06:05:20.570Z,10.2
2019-04-16T06:06:20.561Z,10.1
2019-04-16T06:07:19.569Z,10
2019-04-16T06:08:19.559Z,9.6
2019-04-16T06:09:19.620Z,12.6
2019-04-16T06:10:19.691Z,12.1
2019-04-16T06:11:28.014Z,10.8
2019-04-16T06:12:20.792Z,9.4
2019-04-16T06:13:19.792Z,9.9
2019-04-16T06:14:19.925Z,9.6
2019-04-16T06:15:22.462Z,10
2019-04-16T06:16:23.874Z,9.9
2019-04-16T06:17:21.244Z,9.9
2019-04-16T06:18:21.207Z,9.4
2019-04-16T06:19:20.380Z,9.7
2019-04-16T06:20:21.362Z,9.6
2019-04-16T06:21:22.583Z,9.5
2019-04-16T06:22:21.423Z,9.2
2019-04-16T06:23:21.402Z,9.5
2019-04-16T06:24:20.390Z,9.1
2019-04-16T06:25:20.499Z,9.6
2019-04-16T06:26:20.413Z,9.5
2019-04-16T06:27:20.579Z,9.1
2019-04-16T06:28:20.573Z,9.9
2019-04-16T06:29:20.568Z,9.7
2019-04-16T06:30:21.607Z,10.2
2019-04-16T06:31:20.646Z,9.3
2019-04-16T06:32:20.662Z,9.6
2019-04-16T06:33:20.677Z,9.4
2019-04-16T06:34:23.616Z,9.4
2019-04-16T06:35:21.717Z,9.5
2019-04-16T06:36:20.714Z,9
2019-04-16T06:37:22.251Z,9.5
2019-04-16T06:38:21.753Z,9.5
2019-04-16T06:39:20.777Z,9.1
2019-04-16T06:40:20.800Z,9.6
2019-04-16T06:41:20.841Z,9.6
2019-04-16T06:42:22.239Z,9.4
2019-04-16T06:43:25.081Z,9.7
2019-04-16T06:44:21.842Z,9.5
2019-04-16T06:45:21.013Z,9.3
2019-04-16T06:46:21.041Z,9.4
2019-04-16T06:47:21.027Z,9.4
2019-04-16T06:48:21.182Z,9.1
2019-04-16T06:49:21.360Z,9
2019-04-16T06:50:31.015Z,9.7
2019-04-16T06:51:22.646Z,9.3
2019-04-16T06:52:21.603Z,9.3
2019-04-16T06:53:23.463Z,9.4
2019-04-16T06:54:25.269Z,9.5
2019-04-16T06:55:22.924Z,9.5
2019-04-16T06:56:21.951Z,10.2
2019-04-16T06:57:21.997Z,9.3
2019-04-16T06:58:23.120Z,9.3
2019-04-16T06:59:23.011Z,10
2019-04-16T07:00:23.056Z,9.7
2019-04-16T07:01:23.062Z,9.8
2019-04-16T07:02:24.250Z,9.2
2019-04-16T07:03:25.745Z,9.5
2019-04-16T07:04:23.239Z,9.6
2019-04-16T07:05:23.400Z,9.8
2019-04-16T07:06:22.492Z,9.1
2019-04-16T07:07:22.579Z,10.3
2019-04-16T07:08:22.458Z,17.5
2019-04-16T07:09:25.883Z,19.5
2019-04-16T07:10:25.412Z,15.5
2019-04-16T07:11:23.643Z,12.7
2019-04-16T07:12:22.746Z,10.9
2019-04-16T07:13:22.730Z,10.5
2019-04-16T07:14:22.729Z,10.1
2019-04-16T07:15:24.425Z,9.9
2019-04-16T07:16:27.850Z,9.3
2019-04-16T07:17:24.223Z,9.5
2019-04-16T07:18:23.259Z,9.1
2019-04-16T07:19:23.265Z,9.4
2019-04-16T07:20:23.271Z,9.8
2019-04-16T07:21:23.293Z,9.3
2019-04-16T07:22:23.285Z,9.3
2019-04-16T07:23:24.599Z,9.4
2019-04-16T07:24:23.807Z,9.1
2019-04-16T07:25:27.117Z,9.5
2019-04-16T07:26:24.706Z,9.3
2019-04-16T07:27:23.690Z,8.7
2019-04-16T07:28:25.544Z,8.9
2019-04-16T07:29:23.750Z,9
2019-04-16T07:30:24.743Z,9.2
2019-04-16T07:31:33.063Z,9
2019-04-16T07:32:25.133Z,8.7
2019-04-16T07:33:23.903Z,9.2
2019-04-16T07:34:23.916Z,9.3
2019-04-16T07:35:26.989Z,8.9
2019-04-16T07:36:27.139Z,9.2
2019-04-16T07:37:24.093Z,8.8
2019-04-16T07:38:24.152Z,9.8
2019-04-16T07:39:30.439Z,11.9
2019-04-16T07:40:25.304Z,12.8
2019-04-16T07:41:24.295Z,11.5
2019-04-16T07:42:26.281Z,11
2019-04-16T07:43:24.392Z,10.1
2019-04-16T07:44:25.391Z,10.4
2019-04-16T07:45:24.386Z,9.5
2019-04-16T07:46:24.401Z,9.5
2019-04-16T07:47:24.408Z,9.2
2019-04-16T07:48:24.434Z,9.1
2019-04-16T07:49:26.352Z,9.2
2019-04-16T07:50:24.455Z,9.5
2019-04-16T07:51:24.468Z,9.6
2019-04-16T07:52:24.493Z,10
2019-04-16T07:53:24.688Z,9.2
2019-04-16T07:54:24.512Z,9.6
2019-04-16T07:55:26.500Z,9.2
2019-04-16T07:56:24.533Z,9.3
2019-04-16T07:57:25.538Z,9
2019-04-16T07:58:24.571Z,9.7
2019-04-16T07:59:24.604Z,8.8
2019-04-16T08:00:24.628Z,9.6
2019-04-16T08:01:24.628Z,9.6
2019-04-16T08:02:24.620Z,9.2
2019-04-16T08:03:26.686Z,10.1
2019-04-16T08:04:28.873Z,9.4
2019-04-16T08:05:27.756Z,9.3
2019-04-16T08:06:24.774Z,9.8
2019-04-16T08:07:24.774Z,9.8
2019-04-16T08:08:25.434Z,8.4
2019-04-16T08:09:28.621Z,9.4
2019-04-16T08:10:25.951Z,9.7
2019-04-16T08:11:25.005Z,9.6
2019-04-16T08:12:30.222Z,9.7
2019-04-16T08:13:26.246Z,9.4
2019-04-16T08:14:26.307Z,9.6
2019-04-16T08:15:25.325Z,9.3
2019-04-16T08:16:25.334Z,9.1
2019-04-16T08:17:25.353Z,9.4
2019-04-16T08:18:25.384Z,9.5
2019-04-16T08:19:35.964Z,9.6
2019-04-16T08:20:26.385Z,8.9
2019-04-16T08:21:25.544Z,9.6
2019-04-16T08:22:25.679Z,10
2019-04-16T08:23:25.619Z,9.5
2019-04-16T08:24:25.670Z,9.2
2019-04-16T08:25:25.691Z,9.3
2019-04-16T08:26:26.672Z,9.4
2019-04-16T08:27:25.674Z,9.6
2019-04-16T08:28:25.702Z,9.1
2019-04-16T08:29:26.593Z,9.3
2019-04-16T08:30:25.787Z,9.1
2019-04-16T08:31:25.797Z,9.4
2019-04-16T08:32:26.089Z,8.9
2019-04-16T08:33:28.503Z,8.7
2019-04-16T08:34:27.029Z,8.7
2019-04-16T08:35:26.041Z,9
2019-04-16T08:36:26.060Z,8.5
2019-04-16T08:37:26.060Z,9.1
2019-04-16T08:38:26.385Z,9.3
2019-04-16T08:39:26.259Z,8.9
2019-04-16T08:40:26.296Z,8.9
2019-04-16T08:41:26.291Z,9
2019-04-16T08:42:29.281Z,9
2019-04-16T08:43:29.515Z,9
2019-04-16T08:44:27.348Z,9.7
2019-04-16T08:45:26.425Z,9.3
2019-04-16T08:46:28.138Z,8.9
2019-04-16T08:47:26.475Z,9.1
2019-04-16T08:48:26.457Z,9.8
2019-04-16T08:49:26.446Z,9.4
2019-04-16T08:50:26.939Z,9.3
2019-04-16T08:51:30.527Z,9.8
2019-04-16T08:52:27.595Z,9.5
2019-04-16T08:53:26.644Z,9.1
2019-04-16T08:54:26.641Z,9.3
2019-04-16T08:55:26.687Z,9.6
2019-04-16T08:56:26.698Z,9.1
2019-04-16T08:57:31.400Z,9.6
2019-04-16T08:58:27.713Z,9.1
2019-04-16T08:59:26.774Z,9.7
2019-04-16T09:00:26.817Z,9.8
2019-04-16T09:01:26.793Z,9.8
2019-04-16T09:02:27.288Z,9.9
2019-04-16T09:03:29.945Z,10.5
2019-04-16T09:04:28.061Z,9.8
2019-04-16T09:05:28.127Z,9.7
2019-04-16T09:06:27.141Z,9.1
2019-04-16T09:07:27.148Z,9.6
2019-04-16T09:08:27.156Z,9.5
2019-04-16T09:09:27.127Z,9.8
2019-04-16T09:10:29.906Z,10.4
2019-04-16T09:11:28.583Z,10.2
2019-04-16T09:12:28.271Z,9.5
2019-04-16T09:13:27.281Z,9.9
2019-04-16T09:14:27.298Z,9.8
2019-04-16T09:15:27.583Z,10.2
2019-04-16T09:16:27.441Z,9.9
2019-04-16T09:17:27.463Z,10.2
2019-04-16T09:18:27.614Z,10.3
2019-04-16T09:19:27.724Z,10.4
2019-04-16T09:20:27.849Z,9.7
2019-04-16T09:21:28.264Z,9.9
2019-04-16T09:22:27.893Z,10.4
2019-04-16T09:23:27.921Z,10
2019-04-16T09:24:27.967Z,10.4
2019-04-16T09:25:28.152Z,10
2019-04-16T09:26:28.138Z,10
2019-04-16T09:27:29.570Z,9.7
2019-04-16T09:28:31.038Z,10.4
2019-04-16T09:29:28.364Z,10.3
2019-04-16T09:30:28.379Z,10.2
2019-04-16T09:31:28.539Z,10.5
2019-04-16T09:32:28.612Z,9.8
2019-04-16T09:33:30.311Z,11
2019-04-16T09:34:29.851Z,10.1
2019-04-16T09:35:28.835Z,10.7
2019-04-16T09:36:28.874Z,10.2
2019-04-16T09:37:29.306Z,10.8
2019-04-16T09:38:29.996Z,10.3
2019-04-16T09:39:29.103Z,10.5
2019-04-16T09:40:29.111Z,10.8
2019-04-16T09:41:29.339Z,10.4
2019-04-16T09:42:29.366Z,10.7
2019-04-16T09:43:29.344Z,10.7
2019-04-16T09:44:31.025Z,10.1
2019-04-16T09:45:30.459Z,10.7
2019-04-16T09:46:50.245Z,11.1
2019-04-16T09:47:32.506Z,10.9
2019-04-16T09:48:34.064Z,10.5
2019-04-16T09:49:30.972Z,11.3
2019-04-16T09:50:31.096Z,10.7
2019-04-16T09:51:30.328Z,10.7
2019-04-16T09:52:30.317Z,11.1
2019-04-16T09:53:33.893Z,11.3
2019-04-16T09:54:31.416Z,10.8
2019-04-16T09:55:30.560Z,11.2
2019-04-16T09:56:30.661Z,10.7
2019-04-16T09:57:32.209Z,11.5
2019-04-16T09:58:30.676Z,11.1
2019-04-16T09:59:31.807Z,12
2019-04-16T10:00:31.003Z,11.5
2019-04-16T10:01:31.004Z,11.2
2019-04-16T10:02:31.019Z,11.5
2019-04-16T10:03:31.008Z,11.7
2019-04-16T10:04:31.218Z,12.1
2019-04-16T10:05:31.167Z,11.7
2019-04-16T10:06:31.462Z,12.4
2019-04-16T10:07:31.384Z,12.7
2019-04-16T10:08:31.422Z,12.1
2019-04-16T10:09:31.483Z,12.2
2019-04-16T10:10:31.548Z,12
2019-04-16T10:11:32.632Z,11.5
2019-04-16T10:12:32.921Z,11.8
2019-04-16T10:13:35.821Z,11.8
2019-04-16T10:14:33.069Z,12
2019-04-16T10:15:32.064Z,12.2
2019-04-16T10:16:32.029Z,12.3
2019-04-16T10:17:32.208Z,12.3
2019-04-16T10:18:35.052Z,11.9
2019-04-16T10:19:33.319Z,13.1
2019-04-16T10:20:32.456Z,12.2
2019-04-16T10:21:32.434Z,12.2
2019-04-16T10:22:32.627Z,12.1
2019-04-16T10:23:32.624Z,11.8
2019-04-16T10:24:32.659Z,12.3
2019-04-16T10:25:33.543Z,12.3
2019-04-16T10:26:32.817Z,12.6
2019-04-16T10:27:32.883Z,12.5
2019-04-16T10:28:33.872Z,12.3
2019-04-16T10:29:33.954Z,12.8
2019-04-16T10:30:33.087Z,12.4
2019-04-16T10:31:33.190Z,12.8
2019-04-16T10:32:33.321Z,12.5
2019-04-16T10:33:33.286Z,12.6
2019-04-16T10:34:36.131Z,12.2
2019-04-16T10:35:34.537Z,12.5
2019-04-16T10:36:36.779Z,12.5
2019-04-16T10:37:34.809Z,12.7
2019-04-16T10:38:33.752Z,12.4
2019-04-16T10:39:34.025Z,12.3
2019-04-16T10:40:34.004Z,12.7
2019-04-16T10:41:34.166Z,12.4
2019-04-16T10:42:34.215Z,12.8
2019-04-16T10:43:44.197Z,13.3
2019-04-16T10:44:35.318Z,13.7
2019-04-16T10:45:34.481Z,13.4
2019-04-16T10:46:34.432Z,13.3
2019-04-16T10:47:35.746Z,13.1
2019-04-16T10:48:34.604Z,13.5
2019-04-16T10:49:34.593Z,13.5
2019-04-16T10:50:34.618Z,13.4
2019-04-16T10:51:34.746Z,13.8
2019-04-16T10:52:34.883Z,13.9
2019-04-16T10:53:35.015Z,14.2
2019-04-16T10:54:37.146Z,13.8
2019-04-16T10:55:35.238Z,14.3
2019-04-16T10:56:35.390Z,15.1
2019-04-16T10:57:38.241Z,14.9
2019-04-16T10:58:36.616Z,15.1
2019-04-16T10:59:35.765Z,14.7
2019-04-16T11:00:35.930Z,15
2019-04-16T11:01:35.871Z,14.2
2019-04-16T11:02:35.885Z,15.3
2019-04-16T11:03:36.012Z,14.8
2019-04-16T11:04:36.137Z,14.4
2019-04-16T11:05:37.395Z,14.2
2019-04-16T11:06:36.333Z,14.6
2019-04-16T11:07:36.421Z,14.6
2019-04-16T11:08:36.545Z,14.6
2019-04-16T11:09:36.694Z,15.2
2019-04-16T11:10:36.854Z,14.9
2019-04-16T11:11:36.994Z,14.9
2019-04-16T11:12:37.055Z,14.9
2019-04-16T11:13:37.203Z,14.4
2019-04-16T11:14:37.163Z,14.7
2019-04-16T11:15:37.233Z,14.6
2019-04-16T11:16:37.209Z,14
2019-04-16T11:17:37.751Z,14.7
2019-04-16T11:18:38.482Z,14.2
2019-04-16T11:19:37.651Z,14
2019-04-16T11:20:37.741Z,14.4
2019-04-16T11:21:37.862Z,14.6
2019-04-16T11:22:37.947Z,14
2019-04-16T11:23:38.097Z,14.4
2019-04-16T11:24:38.233Z,14.7
2019-04-16T11:25:38.339Z,14.9
2019-04-16T11:26:38.463Z,14.2
2019-04-16T11:27:38.594Z,14.8
2019-04-16T11:28:38.714Z,15
2019-04-16T11:29:41.915Z,14.5
2019-04-16T11:30:39.996Z,14
2019-04-16T11:31:39.121Z,13.9
2019-04-16T11:32:40.115Z,14.7
2019-04-16T11:33:39.327Z,14.1
2019-04-16T11:34:39.474Z,14.1
2019-04-16T11:35:39.615Z,13.6
2019-04-16T11:36:39.683Z,13.8
2019-04-16T11:37:43.462Z,14.1
2019-04-16T11:38:40.937Z,13.2
2019-04-16T11:39:39.985Z,14.1
2019-04-16T11:40:41.159Z,14.1
2019-04-16T11:41:40.043Z,13.8
2019-04-16T11:42:40.175Z,14.1
2019-04-16T11:43:40.291Z,14.2
2019-04-16T11:44:40.478Z,14.4
2019-04-16T11:45:40.441Z,13.8
2019-04-16T11:46:40.571Z,14.1
2019-04-16T11:47:40.687Z,14.3
2019-04-16T11:48:40.789Z,13.6
2019-04-16T11:49:40.887Z,13.2
2019-04-16T11:50:40.983Z,13.8
2019-04-16T11:51:41.117Z,14.2
2019-04-16T11:52:41.286Z,14
2019-04-16T11:53:41.345Z,14.5
2019-04-16T11:54:46.741Z,14.5
2019-04-16T11:55:42.678Z,14.8
2019-04-16T11:56:41.825Z,14.9
2019-04-16T11:57:41.904Z,15.2
2019-04-16T11:58:42.023Z,14.3
2019-04-16T11:59:42.162Z,14
2019-04-16T12:00:42.339Z,14.8
2019-04-16T12:01:42.318Z,14.8
2019-04-16T12:02:42.436Z,14.9
2019-04-16T12:03:42.581Z,14.8
2019-04-16T12:04:42.659Z,15.2
2019-04-16T12:05:42.801Z,14.6
2019-04-16T12:06:42.963Z,15.1
2019-04-16T12:07:43.045Z,14.7
2019-04-16T12:08:44.189Z,14.8
2019-04-16T12:09:43.290Z,15.9
2019-04-16T12:10:43.482Z,15.6
2019-04-16T12:11:43.442Z,14.9
2019-04-16T12:12:43.559Z,15
2019-04-16T12:13:43.737Z,15.4
2019-04-16T12:14:43.888Z,15.3
2019-04-16T12:15:44.013Z,15.9
2019-04-16T12:16:44.133Z,15.7
2019-04-16T12:17:44.254Z,15.2
2019-04-16T12:18:44.362Z,15.6
2019-04-16T12:19:44.892Z,15.2
2019-04-16T12:20:44.626Z,15
2019-04-16T12:21:44.867Z,14.9
2019-04-16T12:22:44.841Z,15.4
2019-04-16T12:23:44.991Z,15
2019-04-16T12:24:45.113Z,15
2019-04-16T12:25:45.205Z,15.1
2019-04-16T12:26:45.403Z,15.1
2019-04-16T12:27:45.531Z,14.7
2019-04-16T12:28:45.591Z,14.8
2019-04-16T12:29:45.723Z,15.2
2019-04-16T12:30:45.847Z,15
2019-04-16T12:31:45.987Z,16
2019-04-16T12:32:46.194Z,15
2019-04-16T12:33:46.132Z,14.7
2019-04-16T12:34:46.319Z,14.7
2019-04-16T12:35:47.420Z,14.5
2019-04-16T12:36:46.577Z,13.9
2019-04-16T12:37:46.678Z,14.8
2019-04-16T12:38:46.804Z,14.4
2019-04-16T12:39:46.947Z,14.6
2019-04-16T12:40:47.062Z,14.1
2019-04-16T12:41:47.196Z,14.9
2019-04-16T12:42:47.129Z,14.4
2019-04-16T12:43:50.711Z,14.7
2019-04-16T12:44:48.337Z,14.7
2019-04-16T12:45:47.440Z,14.8
2019-04-16T12:46:48.622Z,14.2
2019-04-16T12:47:47.760Z,14.6
2019-04-16T12:48:47.904Z,15.1
2019-04-16T12:49:47.995Z,14.3
2019-04-16T12:50:48.116Z,14.5
2019-04-16T12:51:49.216Z,14.4
2019-04-16T12:52:48.361Z,14.6
2019-04-16T12:53:53.031Z,14.4
2019-04-16T12:54:49.561Z,13.8
2019-04-16T12:55:48.699Z,14.3
2019-04-16T12:56:48.832Z,14.1
2019-04-16T12:57:48.799Z,14.2
2019-04-16T12:58:50.604Z,13.5
2019-04-16T12:59:49.153Z,14.4
2019-04-16T13:00:50.079Z,14.9
2019-04-16T13:01:49.191Z,14.7
2019-04-16T13:02:49.322Z,13.8
2019-04-16T13:03:52.281Z,14.7
2019-04-16T13:04:50.540Z,14.4
2019-04-16T13:05:50.836Z,14.8
2019-04-16T13:06:50.770Z,14.6
2019-04-16T13:07:49.910Z,15.1
2019-04-16T13:08:53.238Z,14.9
2019-04-16T13:09:51.124Z,14.3
2019-04-16T13:10:50.224Z,14.2
2019-04-16T13:11:50.329Z,15.5
2019-04-16T13:12:50.507Z,15.6
2019-04-16T13:13:50.456Z,15.4
2019-04-16T13:15:00.278Z,14.9
2019-04-16T13:15:51.669Z,15.1
2019-04-16T13:16:50.788Z,15.9
2019-04-16T13:17:51.637Z,15.5
2019-04-16T13:18:51.062Z,15.5
2019-04-16T13:19:51.175Z,15.4
2019-04-16T13:20:51.340Z,16.1
2019-04-16T13:21:52.439Z,15.4
2019-04-16T13:22:51.562Z,15.6
2019-04-16T13:23:51.732Z,15.8
2019-04-16T13:24:51.680Z,14.8
2019-04-16T13:25:51.787Z,15.3
2019-04-16T13:26:51.901Z,15.8
2019-04-16T13:27:51.998Z,16.200001
2019-04-16T13:28:55.088Z,16.4